Terminal Aerodrome Forecast
Issued by NWS

Home | Current Version | Previous Version | Text Only | Print | Product List | Glossary On
Versions: 1 2 3 4 5 6 7 8 9 10 11 12 13 14 15 16
000
FTUS46 KSEW 221124 AAB
TAFOLM
TAF AMD
KOLM 221124Z 2211/2312 00000KT P6SM OVC100
      TEMPO 2212/2216 2SM BR BKN002
     FM221900 VRB04KT P6SM SCT200
     FM230600 00000KT P6SM BKN200=

USA.gov is the U.S. government's official web portal to all federal, state and local government web resources and services.